sensor_id;sensor_type;location;lat;lon;timestamp;P1;durP1;ratioP1;P2;durP2;ratioP2
33593;SDS011;19920;52.242;20.940;2024-02-28T00:00:37;34.58;;;23.13;;
33593;SDS011;19920;52.242;20.940;2024-02-28T00:03:03;37.28;;;23.23;;
33593;SDS011;19920;52.242;20.940;2024-02-28T00:05:28;34.38;;;23.40;;
33593;SDS011;19920;52.242;20.940;2024-02-28T00:07:54;38.42;;;23.08;;
33593;SDS011;19920;52.242;20.940;2024-02-28T00:10:20;39.72;;;23.83;;
33593;SDS011;19920;52.242;20.940;2024-02-28T00:12:45;43.22;;;24.33;;
33593;SDS011;19920;52.242;20.940;2024-02-28T00:15:11;37.75;;;23.10;;
33593;SDS011;19920;52.242;20.940;2024-02-28T00:17:40;41.35;;;24.48;;
33593;SDS011;19920;52.242;20.940;2024-02-28T00:20:06;37.15;;;23.23;;
33593;SDS011;19920;52.242;20.940;2024-02-28T00:22:33;38.00;;;23.10;;
33593;SDS011;19920;52.242;20.940;2024-02-28T00:24:58;40.50;;;24.13;;
33593;SDS011;19920;52.242;20.940;2024-02-28T00:27:26;39.53;;;23.83;;
33593;SDS011;19920;52.242;20.940;2024-02-28T00:29:51;37.00;;;22.27;;
33593;SDS011;19920;52.242;20.940;2024-02-28T00:32:17;38.28;;;23.90;;
33593;SDS011;19920;52.242;20.940;2024-02-28T00:34:43;40.22;;;24.08;;
33593;SDS011;19920;52.242;20.940;2024-02-28T00:37:09;34.33;;;23.35;;
33593;SDS011;19920;52.242;20.940;2024-02-28T00:39:34;37.17;;;23.58;;
33593;SDS011;19920;52.242;20.940;2024-02-28T00:42:00;41.38;;;23.95;;
33593;SDS011;19920;52.242;20.940;2024-02-28T00:44:25;38.80;;;23.55;;
33593;SDS011;19920;52.242;20.940;2024-02-28T00:46:51;41.25;;;24.50;;
33593;SDS011;19920;52.242;20.940;2024-02-28T00:49:17;37.08;;;23.65;;
33593;SDS011;19920;52.242;20.940;2024-02-28T00:51:42;33.42;;;23.08;;
33593;SDS011;19920;52.242;20.940;2024-02-28T00:54:08;38.22;;;23.90;;
33593;SDS011;19920;52.242;20.940;2024-02-28T00:56:34;39.38;;;24.48;;
33593;SDS011;19920;52.242;20.940;2024-02-28T00:58:59;38.92;;;24.27;;
33593;SDS011;19920;52.242;20.940;2024-02-28T01:01:25;36.53;;;24.13;;
33593;SDS011;19920;52.242;20.940;2024-02-28T01:03:50;40.47;;;23.80;;
33593;SDS011;19920;52.242;20.940;2024-02-28T01:06:16;40.30;;;23.38;;
33593;SDS011;19920;52.242;20.940;2024-02-28T01:08:42;37.58;;;23.50;;
33593;SDS011;19920;52.242;20.940;2024-02-28T01:11:07;34.35;;;23.13;;
33593;SDS011;19920;52.242;20.940;2024-02-28T01:13:33;35.85;;;24.23;;
33593;SDS011;19920;52.242;20.940;2024-02-28T01:15:58;39.60;;;24.73;;
33593;SDS011;19920;52.242;20.940;2024-02-28T01:18:25;41.28;;;24.95;;
33593;SDS011;19920;52.242;20.940;2024-02-28T01:20:50;40.55;;;25.95;;
33593;SDS011;19920;52.242;20.940;2024-02-28T01:23:18;40.47;;;26.10;;
33593;SDS011;19920;52.242;20.940;2024-02-28T01:25:44;42.47;;;26.73;;
33593;SDS011;19920;52.242;20.940;2024-02-28T01:28:10;42.00;;;26.65;;
33593;SDS011;19920;52.242;20.940;2024-02-28T01:30:35;43.55;;;26.88;;
33593;SDS011;19920;52.242;20.940;2024-02-28T01:33:01;41.50;;;26.90;;
33593;SDS011;19920;52.242;20.940;2024-02-28T01:35:26;47.03;;;28.38;;
33593;SDS011;19920;52.242;20.940;2024-02-28T01:37:52;46.65;;;28.08;;
33593;SDS011;19920;52.242;20.940;2024-02-28T01:40:17;48.40;;;28.35;;
33593;SDS011;19920;52.242;20.940;2024-02-28T01:42:43;45.42;;;29.30;;
33593;SDS011;19920;52.242;20.940;2024-02-28T01:45:13;47.70;;;28.48;;
33593;SDS011;19920;52.242;20.940;2024-02-28T01:47:39;48.45;;;30.75;;
33593;SDS011;19920;52.242;20.940;2024-02-28T01:50:06;49.80;;;29.70;;
33593;SDS011;19920;52.242;20.940;2024-02-28T01:52:33;47.50;;;30.33;;
33593;SDS011;19920;52.242;20.940;2024-02-28T01:54:59;48.15;;;30.00;;
33593;SDS011;19920;52.242;20.940;2024-02-28T01:57:25;42.75;;;29.92;;
33593;SDS011;19920;52.242;20.940;2024-02-28T01:59:52;47.03;;;30.60;;
33593;SDS011;19920;52.242;20.940;2024-02-28T02:02:19;46.17;;;30.23;;
33593;SDS011;19920;52.242;20.940;2024-02-28T02:04:45;47.05;;;30.40;;
33593;SDS011;19920;52.242;20.940;2024-02-28T02:07:11;50.65;;;31.80;;
33593;SDS011;19920;52.242;20.940;2024-02-28T02:09:36;47.83;;;31.23;;
33593;SDS011;19920;52.242;20.940;2024-02-28T02:12:02;48.83;;;31.27;;
33593;SDS011;19920;52.242;20.940;2024-02-28T02:14:28;48.45;;;30.13;;
33593;SDS011;19920;52.242;20.940;2024-02-28T02:16:53;48.75;;;32.55;;
33593;SDS011;19920;52.242;20.940;2024-02-28T02:19:19;47.17;;;31.83;;
33593;SDS011;19920;52.242;20.940;2024-02-28T02:21:49;52.50;;;31.90;;
33593;SDS011;19920;52.242;20.940;2024-02-28T02:24:18;53.03;;;32.70;;
33593;SDS011;19920;52.242;20.940;2024-02-28T02:26:44;52.45;;;33.88;;
33593;SDS011;19920;52.242;20.940;2024-02-28T02:29:11;53.90;;;34.08;;
33593;SDS011;19920;52.242;20.940;2024-02-28T02:31:37;52.60;;;34.28;;
33593;SDS011;19920;52.242;20.940;2024-02-28T02:34:03;58.08;;;35.72;;
33593;SDS011;19920;52.242;20.940;2024-02-28T02:36:28;58.15;;;36.08;;
33593;SDS011;19920;52.242;20.940;2024-02-28T02:38:54;53.65;;;34.05;;
33593;SDS011;19920;52.242;20.940;2024-02-28T02:41:19;56.15;;;35.13;;
33593;SDS011;19920;52.242;20.940;2024-02-28T02:43:45;53.88;;;35.63;;
33593;SDS011;19920;52.242;20.940;2024-02-28T02:46:11;57.28;;;36.25;;
33593;SDS011;19920;52.242;20.940;2024-02-28T02:48:36;52.90;;;35.28;;
33593;SDS011;19920;52.242;20.940;2024-02-28T02:51:02;54.50;;;34.95;;
33593;SDS011;19920;52.242;20.940;2024-02-28T02:53:28;50.88;;;33.65;;
33593;SDS011;19920;52.242;20.940;2024-02-28T02:55:53;53.75;;;35.33;;
33593;SDS011;19920;52.242;20.940;2024-02-28T02:58:19;56.83;;;35.85;;
33593;SDS011;19920;52.242;20.940;2024-02-28T03:00:45;54.63;;;35.45;;
33593;SDS011;19920;52.242;20.940;2024-02-28T03:03:10;52.95;;;35.38;;
33593;SDS011;19920;52.242;20.940;2024-02-28T03:05:36;53.60;;;34.65;;
33593;SDS011;19920;52.242;20.940;2024-02-28T03:08:01;53.65;;;35.38;;
33593;SDS011;19920;52.242;20.940;2024-02-28T03:10:27;57.55;;;36.25;;
33593;SDS011;19920;52.242;20.940;2024-02-28T03:12:53;57.42;;;37.65;;
33593;SDS011;19920;52.242;20.940;2024-02-28T03:15:19;59.35;;;36.08;;
33593;SDS011;19920;52.242;20.940;2024-02-28T03:17:45;59.58;;;38.20;;
33593;SDS011;19920;52.242;20.940;2024-02-28T03:20:11;64.25;;;39.42;;
33593;SDS011;19920;52.242;20.940;2024-02-28T03:22:39;63.17;;;38.85;;
33593;SDS011;19920;52.242;20.940;2024-02-28T03:25:05;61.13;;;38.90;;
33593;SDS011;19920;52.242;20.940;2024-02-28T03:27:31;59.35;;;38.25;;
33593;SDS011;19920;52.242;20.940;2024-02-28T03:29:56;61.75;;;37.80;;
33593;SDS011;19920;52.242;20.940;2024-02-28T03:32:22;62.58;;;39.45;;
33593;SDS011;19920;52.242;20.940;2024-02-28T03:34:47;65.00;;;40.78;;
33593;SDS011;19920;52.242;20.940;2024-02-28T03:37:13;65.30;;;43.05;;
33593;SDS011;19920;52.242;20.940;2024-02-28T03:39:39;64.00;;;42.92;;
33593;SDS011;19920;52.242;20.940;2024-02-28T03:42:05;62.08;;;40.75;;
33593;SDS011;19920;52.242;20.940;2024-02-28T03:44:31;62.25;;;41.53;;
33593;SDS011;19920;52.242;20.940;2024-02-28T03:46:56;67.07;;;42.17;;
33593;SDS011;19920;52.242;20.940;2024-02-28T03:49:22;65.22;;;42.17;;
33593;SDS011;19920;52.242;20.940;2024-02-28T03:51:47;67.68;;;43.22;;
33593;SDS011;19920;52.242;20.940;2024-02-28T03:54:13;69.97;;;42.35;;
33593;SDS011;19920;52.242;20.940;2024-02-28T03:56:39;64.75;;;42.40;;
33593;SDS011;19920;52.242;20.940;2024-02-28T03:59:04;66.72;;;43.47;;
33593;SDS011;19920;52.242;20.940;2024-02-28T04:01:30;62.53;;;42.40;;
33593;SDS011;19920;52.242;20.940;2024-02-28T04:03:55;66.68;;;42.28;;
33593;SDS011;19920;52.242;20.940;2024-02-28T04:06:21;65.97;;;43.88;;
33593;SDS011;19920;52.242;20.940;2024-02-28T04:08:47;68.13;;;42.25;;
33593;SDS011;19920;52.242;20.940;2024-02-28T04:11:12;69.63;;;44.72;;
33593;SDS011;19920;52.242;20.940;2024-02-28T04:13:38;72.35;;;43.40;;
33593;SDS011;19920;52.242;20.940;2024-02-28T04:16:05;68.47;;;43.95;;
33593;SDS011;19920;52.242;20.940;2024-02-28T04:18:31;66.72;;;42.25;;
33593;SDS011;19920;52.242;20.940;2024-02-28T04:20:58;63.30;;;43.03;;
33593;SDS011;19920;52.242;20.940;2024-02-28T04:23:24;68.20;;;44.47;;
33593;SDS011;19920;52.242;20.940;2024-02-28T04:25:49;66.75;;;43.75;;
33593;SDS011;19920;52.242;20.940;2024-02-28T04:28:15;65.38;;;42.15;;
33593;SDS011;19920;52.242;20.940;2024-02-28T04:30:40;65.28;;;43.42;;
33593;SDS011;19920;52.242;20.940;2024-02-28T04:33:06;64.82;;;41.28;;
33593;SDS011;19920;52.242;20.940;2024-02-28T04:35:32;64.05;;;42.13;;
33593;SDS011;19920;52.242;20.940;2024-02-28T04:37:57;65.93;;;41.78;;
33593;SDS011;19920;52.242;20.940;2024-02-28T04:40:23;66.18;;;42.67;;
33593;SDS011;19920;52.242;20.940;2024-02-28T04:42:49;65.43;;;44.10;;
33593;SDS011;19920;52.242;20.940;2024-02-28T04:45:15;67.70;;;44.08;;
33593;SDS011;19920;52.242;20.940;2024-02-28T04:47:40;70.97;;;44.70;;
33593;SDS011;19920;52.242;20.940;2024-02-28T04:50:06;69.57;;;45.22;;
33593;SDS011;19920;52.242;20.940;2024-02-28T04:52:32;70.43;;;45.45;;
33593;SDS011;19920;52.242;20.940;2024-02-28T04:54:58;69.97;;;44.28;;
33593;SDS011;19920;52.242;20.940;2024-02-28T04:57:24;73.70;;;45.47;;
33593;SDS011;19920;52.242;20.940;2024-02-28T04:59:50;66.88;;;43.78;;
33593;SDS011;19920;52.242;20.940;2024-02-28T05:02:15;69.45;;;44.05;;
33593;SDS011;19920;52.242;20.940;2024-02-28T05:04:41;65.70;;;44.53;;
33593;SDS011;19920;52.242;20.940;2024-02-28T05:07:07;61.67;;;43.40;;
33593;SDS011;19920;52.242;20.940;2024-02-28T05:09:33;70.15;;;44.10;;
33593;SDS011;19920;52.242;20.940;2024-02-28T05:11:59;68.22;;;45.25;;
33593;SDS011;19920;52.242;20.940;2024-02-28T05:14:25;66.00;;;43.17;;
33593;SDS011;19920;52.242;20.940;2024-02-28T05:16:50;70.70;;;44.50;;
33593;SDS011;19920;52.242;20.940;2024-02-28T05:19:16;67.03;;;44.17;;
33593;SDS011;19920;52.242;20.940;2024-02-28T05:21:43;67.35;;;44.63;;
33593;SDS011;19920;52.242;20.940;2024-02-28T05:24:09;63.78;;;43.22;;
33593;SDS011;19920;52.242;20.940;2024-02-28T05:26:35;71.03;;;46.28;;
33593;SDS011;19920;52.242;20.940;2024-02-28T05:29:01;64.93;;;43.03;;
33593;SDS011;19920;52.242;20.940;2024-02-28T05:31:28;72.25;;;44.40;;
33593;SDS011;19920;52.242;20.940;2024-02-28T05:33:54;66.95;;;43.83;;
33593;SDS011;19920;52.242;20.940;2024-02-28T05:36:24;69.13;;;44.80;;
33593;SDS011;19920;52.242;20.940;2024-02-28T05:38:51;69.05;;;43.75;;
33593;SDS011;19920;52.242;20.940;2024-02-28T05:41:17;65.03;;;43.42;;
33593;SDS011;19920;52.242;20.940;2024-02-28T05:43:43;64.70;;;43.10;;
33593;SDS011;19920;52.242;20.940;2024-02-28T05:46:09;67.55;;;43.72;;
33593;SDS011;19920;52.242;20.940;2024-02-28T05:48:35;64.65;;;42.83;;
33593;SDS011;19920;52.242;20.940;2024-02-28T05:51:01;65.38;;;43.13;;
33593;SDS011;19920;52.242;20.940;2024-02-28T05:53:27;63.17;;;42.60;;
33593;SDS011;19920;52.242;20.940;2024-02-28T05:55:53;67.32;;;43.08;;
33593;SDS011;19920;52.242;20.940;2024-02-28T05:58:22;67.75;;;45.67;;
33593;SDS011;19920;52.242;20.940;2024-02-28T06:00:49;67.53;;;45.17;;
33593;SDS011;19920;52.242;20.940;2024-02-28T06:03:14;70.65;;;45.88;;
33593;SDS011;19920;52.242;20.940;2024-02-28T06:05:40;71.32;;;46.95;;
33593;SDS011;19920;52.242;20.940;2024-02-28T06:08:06;73.00;;;48.05;;
33593;SDS011;19920;52.242;20.940;2024-02-28T06:10:31;78.78;;;48.20;;
33593;SDS011;19920;52.242;20.940;2024-02-28T06:12:57;82.25;;;48.15;;
33593;SDS011;19920;52.242;20.940;2024-02-28T06:15:23;72.95;;;46.75;;
33593;SDS011;19920;52.242;20.940;2024-02-28T06:17:48;76.47;;;48.78;;
33593;SDS011;19920;52.242;20.940;2024-02-28T06:20:14;75.55;;;47.20;;
33593;SDS011;19920;52.242;20.940;2024-02-28T06:22:39;73.68;;;46.53;;
33593;SDS011;19920;52.242;20.940;2024-02-28T06:25:06;83.53;;;47.67;;
33593;SDS011;19920;52.242;20.940;2024-02-28T06:27:38;77.82;;;46.38;;
33593;SDS011;19920;52.242;20.940;2024-02-28T06:30:04;73.20;;;47.03;;
33593;SDS011;19920;52.242;20.940;2024-02-28T06:32:31;71.65;;;46.22;;
33593;SDS011;19920;52.242;20.940;2024-02-28T06:34:57;72.20;;;45.85;;
33593;SDS011;19920;52.242;20.940;2024-02-28T06:37:23;73.85;;;45.45;;
33593;SDS011;19920;52.242;20.940;2024-02-28T06:39:48;74.18;;;46.38;;
33593;SDS011;19920;52.242;20.940;2024-02-28T06:42:14;73.10;;;47.38;;
33593;SDS011;19920;52.242;20.940;2024-02-28T06:44:40;70.50;;;46.08;;
33593;SDS011;19920;52.242;20.940;2024-02-28T06:47:06;71.32;;;45.47;;
33593;SDS011;19920;52.242;20.940;2024-02-28T06:49:34;70.10;;;45.08;;
33593;SDS011;19920;52.242;20.940;2024-02-28T06:51:59;69.18;;;43.53;;
33593;SDS011;19920;52.242;20.940;2024-02-28T06:54:26;67.00;;;44.03;;
33593;SDS011;19920;52.242;20.940;2024-02-28T06:56:55;73.53;;;44.50;;
33593;SDS011;19920;52.242;20.940;2024-02-28T06:59:20;72.72;;;44.28;;
33593;SDS011;19920;52.242;20.940;2024-02-28T07:01:46;65.80;;;42.17;;
33593;SDS011;19920;52.242;20.940;2024-02-28T07:04:12;64.18;;;41.30;;
33593;SDS011;19920;52.242;20.940;2024-02-28T07:06:37;65.45;;;42.53;;
33593;SDS011;19920;52.242;20.940;2024-02-28T07:09:03;68.88;;;42.03;;
33593;SDS011;19920;52.242;20.940;2024-02-28T07:11:29;60.80;;;39.45;;
33593;SDS011;19920;52.242;20.940;2024-02-28T07:13:55;63.15;;;41.13;;
33593;SDS011;19920;52.242;20.940;2024-02-28T07:16:22;60.97;;;41.15;;
33593;SDS011;19920;52.242;20.940;2024-02-28T07:18:48;66.22;;;41.25;;
33593;SDS011;19920;52.242;20.940;2024-02-28T07:21:14;66.78;;;41.95;;
33593;SDS011;19920;52.242;20.940;2024-02-28T07:23:39;66.40;;;41.78;;
33593;SDS011;19920;52.242;20.940;2024-02-28T07:26:06;61.45;;;41.22;;
33593;SDS011;19920;52.242;20.940;2024-02-28T07:28:32;62.85;;;39.53;;
33593;SDS011;19920;52.242;20.940;2024-02-28T07:30:57;58.88;;;39.10;;
33593;SDS011;19920;52.242;20.940;2024-02-28T07:33:23;62.97;;;40.55;;
33593;SDS011;19920;52.242;20.940;2024-02-28T07:35:51;61.45;;;40.45;;
33593;SDS011;19920;52.242;20.940;2024-02-28T07:38:17;64.25;;;40.33;;
33593;SDS011;19920;52.242;20.940;2024-02-28T07:40:45;61.85;;;40.22;;
33593;SDS011;19920;52.242;20.940;2024-02-28T07:43:12;60.70;;;40.05;;
33593;SDS011;19920;52.242;20.940;2024-02-28T07:45:39;60.50;;;39.85;;
33593;SDS011;19920;52.242;20.940;2024-02-28T07:48:05;61.65;;;40.13;;
33593;SDS011;19920;52.242;20.940;2024-02-28T07:50:32;56.40;;;38.70;;
33593;SDS011;19920;52.242;20.940;2024-02-28T07:52:58;61.22;;;40.42;;
33593;SDS011;19920;52.242;20.940;2024-02-28T07:55:23;60.00;;;39.00;;
33593;SDS011;19920;52.242;20.940;2024-02-28T07:57:52;58.22;;;39.97;;
33593;SDS011;19920;52.242;20.940;2024-02-28T08:00:18;58.38;;;38.38;;
33593;SDS011;19920;52.242;20.940;2024-02-28T08:02:45;59.72;;;39.17;;
33593;SDS011;19920;52.242;20.940;2024-02-28T08:05:11;56.47;;;38.72;;
33593;SDS011;19920;52.242;20.940;2024-02-28T08:07:38;58.20;;;38.80;;
33593;SDS011;19920;52.242;20.940;2024-02-28T08:10:03;58.50;;;39.38;;
33593;SDS011;19920;52.242;20.940;2024-02-28T08:12:32;57.88;;;39.80;;
33593;SDS011;19920;52.242;20.940;2024-02-28T08:14:58;56.65;;;38.47;;
33593;SDS011;19920;52.242;20.940;2024-02-28T08:17:23;62.42;;;39.60;;
33593;SDS011;19920;52.242;20.940;2024-02-28T08:19:49;57.13;;;37.22;;
33593;SDS011;19920;52.242;20.940;2024-02-28T08:22:15;56.35;;;37.35;;
33593;SDS011;19920;52.242;20.940;2024-02-28T08:24:41;57.25;;;37.90;;
33593;SDS011;19920;52.242;20.940;2024-02-28T08:27:06;57.85;;;38.13;;
33593;SDS011;19920;52.242;20.940;2024-02-28T08:29:32;59.63;;;38.92;;
33593;SDS011;19920;52.242;20.940;2024-02-28T08:32:00;62.58;;;38.88;;
33593;SDS011;19920;52.242;20.940;2024-02-28T08:34:26;53.22;;;37.22;;
33593;SDS011;19920;52.242;20.940;2024-02-28T08:36:51;55.80;;;37.30;;
33593;SDS011;19920;52.242;20.940;2024-02-28T08:39:17;58.65;;;37.25;;
33593;SDS011;19920;52.242;20.940;2024-02-28T08:41:43;53.80;;;37.25;;
33593;SDS011;19920;52.242;20.940;2024-02-28T08:44:09;60.72;;;39.25;;
33593;SDS011;19920;52.242;20.940;2024-02-28T08:46:34;54.97;;;37.08;;
33593;SDS011;19920;52.242;20.940;2024-02-28T08:49:00;56.00;;;38.55;;
33593;SDS011;19920;52.242;20.940;2024-02-28T08:51:25;55.92;;;36.42;;
33593;SDS011;19920;52.242;20.940;2024-02-28T08:53:52;54.15;;;36.25;;
33593;SDS011;19920;52.242;20.940;2024-02-28T08:56:20;53.30;;;38.20;;
33593;SDS011;19920;52.242;20.940;2024-02-28T08:58:45;58.42;;;37.20;;
33593;SDS011;19920;52.242;20.940;2024-02-28T09:01:14;52.03;;;37.25;;
33593;SDS011;19920;52.242;20.940;2024-02-28T09:03:40;55.30;;;36.77;;
33593;SDS011;19920;52.242;20.940;2024-02-28T09:06:06;55.33;;;35.88;;
33593;SDS011;19920;52.242;20.940;2024-02-28T09:08:31;51.78;;;36.42;;
33593;SDS011;19920;52.242;20.940;2024-02-28T09:10:57;58.42;;;36.58;;
33593;SDS011;19920;52.242;20.940;2024-02-28T09:13:23;54.17;;;35.60;;
33593;SDS011;19920;52.242;20.940;2024-02-28T09:15:49;50.55;;;35.30;;
33593;SDS011;19920;52.242;20.940;2024-02-28T09:18:14;48.58;;;34.58;;
33593;SDS011;19920;52.242;20.940;2024-02-28T09:20:41;51.92;;;34.92;;
33593;SDS011;19920;52.242;20.940;2024-02-28T09:23:07;50.97;;;35.47;;
33593;SDS011;19920;52.242;20.940;2024-02-28T09:25:33;50.70;;;35.50;;
33593;SDS011;19920;52.242;20.940;2024-02-28T09:28:00;50.03;;;33.95;;
33593;SDS011;19920;52.242;20.940;2024-02-28T09:30:26;48.05;;;33.70;;
33593;SDS011;19920;52.242;20.940;2024-02-28T09:32:52;48.15;;;33.45;;
33593;SDS011;19920;52.242;20.940;2024-02-28T09:35:18;46.22;;;32.58;;
33593;SDS011;19920;52.242;20.940;2024-02-28T09:37:44;50.63;;;33.97;;
33593;SDS011;19920;52.242;20.940;2024-02-28T09:40:10;48.13;;;33.42;;
33593;SDS011;19920;52.242;20.940;2024-02-28T09:42:36;44.85;;;32.25;;
33593;SDS011;19920;52.242;20.940;2024-02-28T09:45:03;45.45;;;31.20;;
33593;SDS011;19920;52.242;20.940;2024-02-28T09:47:29;46.47;;;32.65;;
33593;SDS011;19920;52.242;20.940;2024-02-28T09:49:56;44.58;;;32.03;;
33593;SDS011;19920;52.242;20.940;2024-02-28T09:52:25;44.95;;;31.70;;
33593;SDS011;19920;52.242;20.940;2024-02-28T09:54:52;49.35;;;34.10;;
33593;SDS011;19920;52.242;20.940;2024-02-28T09:57:18;47.20;;;33.05;;
33593;SDS011;19920;52.242;20.940;2024-02-28T09:59:44;45.50;;;34.08;;
33593;SDS011;19920;52.242;20.940;2024-02-28T10:02:10;50.80;;;33.42;;
33593;SDS011;19920;52.242;20.940;2024-02-28T10:04:36;53.30;;;36.92;;
33593;SDS011;19920;52.242;20.940;2024-02-28T10:07:14;49.10;;;34.10;;
33593;SDS011;19920;52.242;20.940;2024-02-28T10:09:40;52.38;;;34.72;;
33593;SDS011;19920;52.242;20.940;2024-02-28T10:12:07;52.72;;;36.05;;
33593;SDS011;19920;52.242;20.940;2024-02-28T10:14:33;55.53;;;35.42;;
33593;SDS011;19920;52.242;20.940;2024-02-28T10:16:59;52.83;;;35.88;;
33593;SDS011;19920;52.242;20.940;2024-02-28T10:19:25;52.30;;;35.67;;
33593;SDS011;19920;52.242;20.940;2024-02-28T10:21:50;52.95;;;34.15;;
33593;SDS011;19920;52.242;20.940;2024-02-28T10:24:16;52.72;;;35.53;;
33593;SDS011;19920;52.242;20.940;2024-02-28T10:26:43;54.95;;;36.28;;
33593;SDS011;19920;52.242;20.940;2024-02-28T10:29:22;52.80;;;35.70;;
33593;SDS011;19920;52.242;20.940;2024-02-28T10:31:49;53.58;;;36.33;;
33593;SDS011;19920;52.242;20.940;2024-02-28T10:34:16;52.58;;;36.08;;
33593;SDS011;19920;52.242;20.940;2024-02-28T10:36:42;55.90;;;35.42;;
33593;SDS011;19920;52.242;20.940;2024-02-28T10:39:09;52.42;;;35.70;;
33593;SDS011;19920;52.242;20.940;2024-02-28T10:41:37;49.80;;;35.63;;
33593;SDS011;19920;52.242;20.940;2024-02-28T10:44:03;52.35;;;35.97;;
33593;SDS011;19920;52.242;20.940;2024-02-28T10:46:29;58.33;;;36.40;;
33593;SDS011;19920;52.242;20.940;2024-02-28T10:48:56;53.65;;;35.67;;
33593;SDS011;19920;52.242;20.940;2024-02-28T10:51:25;56.50;;;36.47;;
33593;SDS011;19920;52.242;20.940;2024-02-28T10:56:43;55.28;;;37.20;;
33593;SDS011;19920;52.242;20.940;2024-02-28T10:59:10;53.15;;;35.78;;
33593;SDS011;19920;52.242;20.940;2024-02-28T11:01:38;55.80;;;36.47;;
33593;SDS011;19920;52.242;20.940;2024-02-28T11:04:08;58.95;;;37.20;;
33593;SDS011;19920;52.242;20.940;2024-02-28T11:06:36;57.47;;;38.90;;
33593;SDS011;19920;52.242;20.940;2024-02-28T11:09:20;55.67;;;38.13;;
33593;SDS011;19920;52.242;20.940;2024-02-28T11:11:50;56.80;;;38.17;;
33593;SDS011;19920;52.242;20.940;2024-02-28T11:14:17;62.33;;;38.60;;
33593;SDS011;19920;52.242;20.940;2024-02-28T11:16:47;59.83;;;38.58;;
33593;SDS011;19920;52.242;20.940;2024-02-28T11:19:19;65.63;;;41.00;;
33593;SDS011;19920;52.242;20.940;2024-02-28T11:21:51;60.70;;;40.55;;
33593;SDS011;19920;52.242;20.940;2024-02-28T11:24:24;68.65;;;42.25;;
33593;SDS011;19920;52.242;20.940;2024-02-28T11:26:53;64.07;;;42.63;;
33593;SDS011;19920;52.242;20.940;2024-02-28T11:29:25;67.95;;;41.90;;
33593;SDS011;19920;52.242;20.940;2024-02-28T11:31:52;66.55;;;43.55;;
33593;SDS011;19920;52.242;20.940;2024-02-28T11:34:18;72.88;;;46.55;;
33593;SDS011;19920;52.242;20.940;2024-02-28T11:36:48;74.88;;;45.95;;
33593;SDS011;19920;52.242;20.940;2024-02-28T11:39:15;79.97;;;48.90;;
33593;SDS011;19920;52.242;20.940;2024-02-28T11:41:42;76.95;;;50.85;;
33593;SDS011;19920;52.242;20.940;2024-02-28T11:44:11;82.47;;;51.92;;
33593;SDS011;19920;52.242;20.940;2024-02-28T11:46:38;90.10;;;53.72;;
33593;SDS011;19920;52.242;20.940;2024-02-28T11:49:07;86.35;;;54.53;;
33593;SDS011;19920;52.242;20.940;2024-02-28T11:51:33;84.22;;;53.25;;
33593;SDS011;19920;52.242;20.940;2024-02-28T11:54:00;83.65;;;51.65;;
33593;SDS011;19920;52.242;20.940;2024-02-28T11:56:27;89.25;;;53.45;;
33593;SDS011;19920;52.242;20.940;2024-02-28T11:58:53;84.68;;;52.05;;
33593;SDS011;19920;52.242;20.940;2024-02-28T12:01:35;84.13;;;51.13;;
33593;SDS011;19920;52.242;20.940;2024-02-28T12:04:11;81.47;;;50.80;;
33593;SDS011;19920;52.242;20.940;2024-02-28T12:06:38;83.15;;;50.63;;
33593;SDS011;19920;52.242;20.940;2024-02-28T12:09:05;77.57;;;49.30;;
33593;SDS011;19920;52.242;20.940;2024-02-28T12:11:33;86.03;;;51.78;;
33593;SDS011;19920;52.242;20.940;2024-02-28T12:14:02;87.00;;;48.47;;
33593;SDS011;19920;52.242;20.940;2024-02-28T12:16:29;79.65;;;48.15;;
33593;SDS011;19920;52.242;20.940;2024-02-28T12:18:55;73.43;;;46.05;;
33593;SDS011;19920;52.242;20.940;2024-02-28T12:21:21;71.25;;;45.92;;
33593;SDS011;19920;52.242;20.940;2024-02-28T12:23:47;75.60;;;47.90;;
33593;SDS011;19920;52.242;20.940;2024-02-28T12:26:18;77.43;;;48.25;;
33593;SDS011;19920;52.242;20.940;2024-02-28T12:28:44;73.60;;;46.53;;
33593;SDS011;19920;52.242;20.940;2024-02-28T12:31:10;76.13;;;46.40;;
33593;SDS011;19920;52.242;20.940;2024-02-28T12:33:37;77.75;;;47.13;;
33593;SDS011;19920;52.242;20.940;2024-02-28T12:36:03;71.07;;;45.25;;
33593;SDS011;19920;52.242;20.940;2024-02-28T12:38:29;74.18;;;45.63;;
33593;SDS011;19920;52.242;20.940;2024-02-28T12:40:56;69.40;;;43.28;;
33593;SDS011;19920;52.242;20.940;2024-02-28T12:43:23;65.90;;;40.70;;
33593;SDS011;19920;52.242;20.940;2024-02-28T12:45:50;64.05;;;41.08;;
33593;SDS011;19920;52.242;20.940;2024-02-28T12:48:16;62.75;;;40.72;;
33593;SDS011;19920;52.242;20.940;2024-02-28T12:50:41;67.65;;;41.70;;
33593;SDS011;19920;52.242;20.940;2024-02-28T12:53:08;64.38;;;40.97;;
33593;SDS011;19920;52.242;20.940;2024-02-28T12:55:34;63.92;;;40.05;;
33593;SDS011;19920;52.242;20.940;2024-02-28T12:58:00;67.15;;;40.97;;
33593;SDS011;19920;52.242;20.940;2024-02-28T13:00:29;66.38;;;41.67;;
33593;SDS011;19920;52.242;20.940;2024-02-28T13:02:55;66.00;;;40.28;;
33593;SDS011;19920;52.242;20.940;2024-02-28T13:05:20;63.83;;;38.63;;
33593;SDS011;19920;52.242;20.940;2024-02-28T13:07:46;63.28;;;38.78;;
33593;SDS011;19920;52.242;20.940;2024-02-28T13:10:12;63.90;;;38.88;;
33593;SDS011;19920;52.242;20.940;2024-02-28T13:12:38;58.88;;;35.58;;
33593;SDS011;19920;52.242;20.940;2024-02-28T13:15:04;62.22;;;36.22;;
33593;SDS011;19920;52.242;20.940;2024-02-28T13:17:30;57.72;;;35.35;;
33593;SDS011;19920;52.242;20.940;2024-02-28T13:19:56;55.25;;;34.38;;
33593;SDS011;19920;52.242;20.940;2024-02-28T13:22:22;56.67;;;34.78;;
33593;SDS011;19920;52.242;20.940;2024-02-28T13:24:47;54.10;;;32.08;;
33593;SDS011;19920;52.242;20.940;2024-02-28T13:27:13;49.88;;;30.55;;
33593;SDS011;19920;52.242;20.940;2024-02-28T13:29:38;50.78;;;32.03;;
33593;SDS011;19920;52.242;20.940;2024-02-28T13:32:04;51.13;;;31.95;;
33593;SDS011;19920;52.242;20.940;2024-02-28T13:34:30;51.92;;;32.58;;
33593;SDS011;19920;52.242;20.940;2024-02-28T13:36:58;54.78;;;32.33;;
33593;SDS011;19920;52.242;20.940;2024-02-28T13:39:23;52.80;;;31.65;;
33593;SDS011;19920;52.242;20.940;2024-02-28T13:41:50;55.72;;;33.85;;
33593;SDS011;19920;52.242;20.940;2024-02-28T13:44:19;54.60;;;31.10;;
33593;SDS011;19920;52.242;20.940;2024-02-28T13:46:45;53.50;;;30.25;;
33593;SDS011;19920;52.242;20.940;2024-02-28T13:49:11;54.47;;;30.25;;
33593;SDS011;19920;52.242;20.940;2024-02-28T13:51:38;45.55;;;27.33;;
33593;SDS011;19920;52.242;20.940;2024-02-28T13:54:04;53.92;;;29.48;;
33593;SDS011;19920;52.242;20.940;2024-02-28T13:56:30;53.85;;;30.42;;
33593;SDS011;19920;52.242;20.940;2024-02-28T13:58:56;52.85;;;30.02;;
33593;SDS011;19920;52.242;20.940;2024-02-28T14:01:22;55.88;;;30.42;;
33593;SDS011;19920;52.242;20.940;2024-02-28T14:03:48;57.33;;;30.83;;
33593;SDS011;19920;52.242;20.940;2024-02-28T14:06:14;56.70;;;29.85;;